createdAt,value
2022-09-28T00:01:53.163Z,87.00
2022-09-28T00:05:30.996Z,87.32
2022-09-28T00:09:06.627Z,87.23
2022-09-28T00:13:02.502Z,87.12
2022-09-28T00:16:27.448Z,86.85
2022-09-28T00:20:19.143Z,86.71
2022-09-28T00:23:59.029Z,87.00
2022-09-28T00:27:39.685Z,87.19
2022-09-28T00:31:01.003Z,87.24
2022-09-28T00:34:42.475Z,87.21
2022-09-28T00:38:32.656Z,86.89
2022-09-28T00:41:54.632Z,86.61
2022-09-28T00:45:29.937Z,86.42
2022-09-28T00:49:14.539Z,86.39
2022-09-28T00:53:15.985Z,86.60
2022-09-28T00:56:40.551Z,86.90
2022-09-28T01:00:14.842Z,87.07
2022-09-28T01:04:10.126Z,87.50
2022-09-28T01:07:50.163Z,87.33
2022-09-28T01:11:32.310Z,87.32
2022-09-28T01:14:53.074Z,86.81
2022-09-28T01:19:19.130Z,86.65
2022-09-28T01:22:42.946Z,86.46
2022-09-28T01:26:22.608Z,86.31
2022-09-28T01:30:07.735Z,86.28
2022-09-28T01:33:38.653Z,86.43
2022-09-28T01:37:14.288Z,86.89
2022-09-28T01:40:45.595Z,87.01
2022-09-28T01:44:24.037Z,87.26
2022-09-28T01:48:04.072Z,87.11
2022-09-28T01:51:47.577Z,87.00
2022-09-28T01:55:34.873Z,86.63
2022-09-28T01:59:21.755Z,86.57
2022-09-28T02:03:01.303Z,86.76
2022-09-28T02:06:41.292Z,86.90
2022-09-28T02:10:16.111Z,86.77
2022-09-28T02:14:09.798Z,86.69
2022-09-28T02:17:50.054Z,86.57
2022-09-28T02:21:39.010Z,86.47
2022-09-28T02:25:28.172Z,86.62
2022-09-28T02:28:49.061Z,86.71
2022-09-28T02:32:28.952Z,87.00
2022-09-28T02:36:03.833Z,87.44
2022-09-28T02:39:58.181Z,87.57
2022-09-28T02:43:31.202Z,87.43
2022-09-28T02:47:30.109Z,86.99
2022-09-28T02:51:09.166Z,87.16
2022-09-28T02:55:01.113Z,87.24
2022-09-28T02:59:03.611Z,87.54
2022-09-28T03:03:17.115Z,87.59
2022-09-28T03:07:00.670Z,87.48
2022-09-28T03:10:49.213Z,87.43
2022-09-28T03:14:11.078Z,87.08
2022-09-28T03:17:46.688Z,86.85
2022-09-28T03:21:42.062Z,86.87
2022-09-28T03:25:21.878Z,87.22
2022-09-28T03:28:45.769Z,87.19
2022-09-28T03:32:19.715Z,87.04
2022-09-28T03:35:56.340Z,86.54
2022-09-28T03:39:51.942Z,86.26
2022-09-28T03:43:12.913Z,86.33
2022-09-28T03:46:49.613Z,86.46
2022-09-28T03:50:26.387Z,86.74
2022-09-28T03:54:03.629Z,86.98
2022-09-28T03:57:40.004Z,87.37
2022-09-28T04:01:17.908Z,87.58
2022-09-28T04:04:53.694Z,87.40
2022-09-28T04:08:31.105Z,87.62
2022-09-28T04:12:07.667Z,87.82
2022-09-28T04:16:04.329Z,88.11
2022-09-28T04:19:27.574Z,88.53
2022-09-28T04:23:15.491Z,88.58
2022-09-28T04:27:28.695Z,88.69
2022-09-28T04:30:50.096Z,88.97
2022-09-28T04:34:29.801Z,89.69
2022-09-28T04:38:03.505Z,90.00
2022-09-28T04:41:41.346Z,89.90
2022-09-28T04:45:17.145Z,89.67
2022-09-28T04:48:53.779Z,89.70
2022-09-28T04:52:36.979Z,89.82
2022-09-28T04:56:29.899Z,89.81
2022-09-28T04:59:50.582Z,90.06
2022-09-28T05:03:28.376Z,90.12
2022-09-28T05:07:09.737Z,90.12
2022-09-28T05:10:47.172Z,90.02
2022-09-28T05:14:23.044Z,90.11
2022-09-28T05:18:18.945Z,90.17
2022-09-28T05:21:46.981Z,90.26
2022-09-28T05:25:21.870Z,90.34
2022-09-28T05:29:15.180Z,89.90
2022-09-28T05:32:52.715Z,89.91
2022-09-28T05:36:33.581Z,90.00
2022-09-28T05:40:29.269Z,90.39
2022-09-28T05:44:09.269Z,90.71
2022-09-28T05:47:48.941Z,90.89
2022-09-28T05:51:31.476Z,90.82
2022-09-28T05:54:52.528Z,90.69
2022-09-28T05:58:29.542Z,90.65
2022-09-28T06:02:07.270Z,90.69
2022-09-28T06:06:02.170Z,90.87
2022-09-28T06:09:26.067Z,91.01
2022-09-28T06:13:02.091Z,90.96
2022-09-28T06:16:56.815Z,90.60
2022-09-28T06:20:17.373Z,90.52
2022-09-28T06:23:54.196Z,90.70
2022-09-28T06:28:00.245Z,90.82
2022-09-28T06:31:40.045Z,90.85
2022-09-28T06:35:00.641Z,90.93
2022-09-28T06:38:56.796Z,90.94
2022-09-28T06:42:18.757Z,90.76
2022-09-28T06:46:15.697Z,90.76
2022-09-28T06:49:55.837Z,90.92
2022-09-28T06:53:55.948Z,90.98
2022-09-28T06:58:04.969Z,90.87
2022-09-28T07:01:26.520Z,90.98
2022-09-28T07:05:13.876Z,90.46
2022-09-28T07:08:58.189Z,90.35
2022-09-28T07:12:53.948Z,90.35
2022-09-28T07:16:32.378Z,90.58
2022-09-28T07:20:18.951Z,90.55
2022-09-28T07:23:51.970Z,90.36
2022-09-28T07:27:20.076Z,90.02
2022-09-28T07:31:09.548Z,89.56
2022-09-28T07:34:50.204Z,89.91
2022-09-28T07:38:23.845Z,89.98
2022-09-28T07:42:03.013Z,89.71
2022-09-28T07:45:38.284Z,89.25
2022-09-28T07:49:16.647Z,89.35
2022-09-28T07:53:25.815Z,88.99
2022-09-28T07:57:01.716Z,88.57
2022-09-28T08:01:00.318Z,87.80
2022-09-28T08:04:21.598Z,87.76
2022-09-28T08:07:59.809Z,88.02
2022-09-28T08:11:35.239Z,88.18
2022-09-28T08:15:15.860Z,87.83
2022-09-28T08:18:57.720Z,87.41
2022-09-28T08:22:34.416Z,86.92
2022-09-28T08:26:30.088Z,87.23
2022-09-28T08:29:51.502Z,86.66
2022-09-28T08:33:31.635Z,85.26
2022-09-28T08:37:12.572Z,84.66
2022-09-28T08:41:16.068Z,83.89
2022-09-28T08:45:19.675Z,84.03
2022-09-28T08:49:30.873Z,83.56
2022-09-28T08:53:34.478Z,83.56
2022-09-28T08:57:12.495Z,82.58
2022-09-28T09:00:42.218Z,83.01
2022-09-28T09:04:16.244Z,83.28
2022-09-28T09:08:14.447Z,83.00
2022-09-28T09:11:48.936Z,82.51
2022-09-28T09:15:47.188Z,82.76
2022-09-28T09:19:40.171Z,83.27
2022-09-28T09:23:13.650Z,82.93
2022-09-28T09:27:32.071Z,81.04
2022-09-28T09:31:38.348Z,79.79
2022-09-28T09:35:49.737Z,78.10
2022-09-28T09:40:03.217Z,77.75
2022-09-28T09:44:38.339Z,75.62
2022-09-28T09:48:49.061Z,73.17
2022-09-28T09:52:18.292Z,73.68
2022-09-28T09:56:19.656Z,72.27
2022-09-28T10:00:03.593Z,72.60
2022-09-28T10:03:46.238Z,72.29
2022-09-28T10:07:48.843Z,73.22
2022-09-28T10:11:36.363Z,72.08
2022-09-28T10:14:59.057Z,71.98
2022-09-28T10:18:36.754Z,73.16
2022-09-28T10:22:22.695Z,72.88
2022-09-28T10:26:02.376Z,71.40
2022-09-28T10:29:39.043Z,68.53
2022-09-28T10:33:29.205Z,68.46
2022-09-28T10:36:59.941Z,66.78
2022-09-28T10:40:43.884Z,66.75
2022-09-28T10:44:25.441Z,66.93
2022-09-28T10:48:13.278Z,66.05
2022-09-28T10:51:44.681Z,65.52
2022-09-28T10:55:32.536Z,63.65
2022-09-28T10:58:54.191Z,62.60
2022-09-28T11:02:36.345Z,62.16
2022-09-28T11:06:08.743Z,60.73
2022-09-28T11:09:48.920Z,60.72
2022-09-28T11:13:21.161Z,60.08
2022-09-28T11:17:28.956Z,58.96
2022-09-28T11:21:14.826Z,60.09
2022-09-28T11:24:44.079Z,59.24
2022-09-28T11:28:40.684Z,59.09
2022-09-28T11:32:30.147Z,61.08
2022-09-28T11:36:10.484Z,61.18
2022-09-28T11:40:32.952Z,59.77
2022-09-28T11:44:33.405Z,60.11
2022-09-28T11:48:02.627Z,59.39
2022-09-28T11:51:41.254Z,59.11
2022-09-28T11:55:36.346Z,59.84
2022-09-28T11:59:26.964Z,59.30
2022-09-28T12:03:04.352Z,59.94
2022-09-28T12:06:37.615Z,59.93
2022-09-28T12:10:45.445Z,59.53
2022-09-28T12:14:19.219Z,58.50
2022-09-28T12:17:48.708Z,58.02
2022-09-28T12:21:39.332Z,56.45
2022-09-28T12:25:03.894Z,56.70
2022-09-28T12:28:56.904Z,57.82
2022-09-28T12:32:39.503Z,58.50
2022-09-28T12:36:06.844Z,57.44
2022-09-28T12:39:56.549Z,57.52
2022-09-28T12:43:53.966Z,57.29
2022-09-28T12:47:29.832Z,57.42
2022-09-28T12:51:00.566Z,57.44
2022-09-28T12:55:13.892Z,56.11
2022-09-28T12:59:03.036Z,57.16
2022-09-28T13:02:43.742Z,57.58
2022-09-28T13:06:36.786Z,57.61
2022-09-28T13:10:07.004Z,58.15
2022-09-28T13:14:03.342Z,58.95
2022-09-28T13:18:13.731Z,59.21
2022-09-28T13:21:48.163Z,59.55
2022-09-28T13:25:20.429Z,60.35
2022-09-28T13:28:51.361Z,60.49
2022-09-28T13:32:26.860Z,60.24
2022-09-28T13:36:05.653Z,60.54
2022-09-28T13:39:44.355Z,59.67
2022-09-28T13:43:29.756Z,60.02
2022-09-28T13:47:20.523Z,60.25
2022-09-28T13:50:48.482Z,59.55
2022-09-28T13:55:00.037Z,59.81
2022-09-28T13:58:36.533Z,59.95
2022-09-28T14:02:55.359Z,60.20
2022-09-28T14:06:23.064Z,60.90
2022-09-28T14:10:16.970Z,61.52
2022-09-28T14:13:43.866Z,61.90
2022-09-28T14:17:53.973Z,62.38
2022-09-28T14:21:20.455Z,62.96
2022-09-28T14:25:17.279Z,64.03
2022-09-28T14:28:58.750Z,65.15
2022-09-28T14:32:24.947Z,65.97
2022-09-28T14:36:02.146Z,66.77
2022-09-28T14:40:11.620Z,67.14
2022-09-28T14:44:01.824Z,67.35
2022-09-28T14:47:33.580Z,67.69
2022-09-28T14:51:24.877Z,68.13
2022-09-28T14:55:16.154Z,69.14
2022-09-28T14:58:37.565Z,70.35
2022-09-28T15:02:22.441Z,70.57
2022-09-28T15:05:50.158Z,70.44
2022-09-28T15:09:32.646Z,70.49
2022-09-28T15:13:28.249Z,70.58
2022-09-28T15:16:48.795Z,70.75
2022-09-28T15:20:48.917Z,71.44
2022-09-28T15:24:33.594Z,72.15
2022-09-28T15:27:57.554Z,72.58
2022-09-28T15:31:35.913Z,72.91
2022-09-28T15:35:28.082Z,73.30
2022-09-28T15:39:28.114Z,73.66
2022-09-28T15:42:49.616Z,74.22
2022-09-28T15:46:28.811Z,74.83
2022-09-28T15:50:06.630Z,75.18
2022-09-28T15:54:19.750Z,75.53
2022-09-28T15:57:40.883Z,75.68
2022-09-28T16:01:39.114Z,76.30
2022-09-28T16:05:38.538Z,76.83
2022-09-28T16:08:59.006Z,76.98
2022-09-28T16:12:58.750Z,77.07
2022-09-28T16:16:27.901Z,77.52
2022-09-28T16:19:57.072Z,78.61
2022-09-28T16:23:34.350Z,79.28
2022-09-28T16:27:25.935Z,79.17
2022-09-28T16:30:59.555Z,78.98
2022-09-28T16:34:42.666Z,78.93
2022-09-28T16:38:12.066Z,79.28
2022-09-28T16:41:44.170Z,79.56
2022-09-28T16:45:20.148Z,79.28
2022-09-28T16:49:18.009Z,79.54
2022-09-28T16:52:59.815Z,79.29
2022-09-28T16:56:21.659Z,79.76
2022-09-28T16:59:58.260Z,80.02
2022-09-28T17:03:35.606Z,79.39
2022-09-28T17:07:31.242Z,79.62
2022-09-28T17:14:38.695Z,80.23
2022-09-28T17:18:17.068Z,79.95
2022-09-28T17:21:52.919Z,80.74
2022-09-28T17:25:48.193Z,80.84
2022-09-28T17:29:16.372Z,80.74
2022-09-28T17:32:51.658Z,80.96
2022-09-28T17:36:26.738Z,81.15
2022-09-28T17:40:02.103Z,81.32
2022-09-28T17:43:41.329Z,81.30
2022-09-28T17:47:15.900Z,81.18
2022-09-28T17:50:52.332Z,81.28
2022-09-28T17:54:29.057Z,81.43
2022-09-28T17:58:24.127Z,81.75
2022-09-28T18:01:48.560Z,82.18
2022-09-28T18:05:43.295Z,82.17
2022-09-28T18:09:05.370Z,82.29
2022-09-28T18:13:01.547Z,82.19
2022-09-28T18:16:23.185Z,82.11
2022-09-28T18:19:59.186Z,82.21
2022-09-28T18:23:39.318Z,82.28
2022-09-28T18:27:33.980Z,82.56
2022-09-28T18:30:54.392Z,82.85
2022-09-28T18:34:31.135Z,82.76
2022-09-28T18:38:11.388Z,82.56
2022-09-28T18:41:47.271Z,82.46
2022-09-28T18:45:21.692Z,82.79
2022-09-28T18:48:58.446Z,83.47
2022-09-28T18:52:54.270Z,83.75
2022-09-28T18:56:21.224Z,84.35
2022-09-28T19:00:12.460Z,83.82
2022-09-28T19:03:33.227Z,83.96
2022-09-28T19:07:10.288Z,83.78
2022-09-28T19:10:48.741Z,83.96
2022-09-28T19:14:42.318Z,84.21
2022-09-28T19:18:04.074Z,84.52
2022-09-28T19:21:41.203Z,84.23
2022-09-28T19:25:17.063Z,83.79
2022-09-28T19:28:54.101Z,83.40
2022-09-28T19:32:30.022Z,82.95
2022-09-28T19:36:09.574Z,82.71
2022-09-28T19:39:43.616Z,83.07
2022-09-28T19:43:21.379Z,83.10
2022-09-28T19:46:59.669Z,82.87
2022-09-28T19:50:34.012Z,83.05
2022-09-28T19:54:11.623Z,83.19
2022-09-28T19:57:48.217Z,83.11
2022-09-28T20:01:43.407Z,83.00
2022-09-28T20:05:04.312Z,83.00
2022-09-28T20:08:42.673Z,83.01
2022-09-28T20:12:36.497Z,83.43
2022-09-28T20:15:57.389Z,83.68
2022-09-28T20:19:52.977Z,83.86
2022-09-28T20:23:13.855Z,84.10
2022-09-28T20:26:53.736Z,84.07
2022-09-28T20:30:46.408Z,84.05
2022-09-28T20:34:07.593Z,84.01
2022-09-28T20:37:44.400Z,83.99
2022-09-28T20:41:23.276Z,83.95
2022-09-28T20:44:58.243Z,84.20
2022-09-28T20:48:55.236Z,84.49
2022-09-28T20:52:34.703Z,84.62
2022-09-28T20:56:03.022Z,84.55
2022-09-28T20:59:54.658Z,84.34
2022-09-28T21:03:18.145Z,84.52
2022-09-28T21:06:53.295Z,84.82
2022-09-28T21:10:30.469Z,85.12
2022-09-28T21:14:26.186Z,85.10
2022-09-28T21:17:46.833Z,85.20
2022-09-28T21:21:24.946Z,85.10
2022-09-28T21:25:00.873Z,84.94
2022-09-28T21:28:38.007Z,85.01
2022-09-28T21:32:34.655Z,84.95
2022-09-28T21:35:55.058Z,85.21
2022-09-28T21:39:31.932Z,85.34
2022-09-28T21:43:08.737Z,85.21
2022-09-28T21:47:04.370Z,84.94
2022-09-28T21:50:26.670Z,84.59
2022-09-28T21:54:02.226Z,84.45
2022-09-28T21:57:38.770Z,84.72
2022-09-28T22:01:20.041Z,85.08
2022-09-28T22:04:52.454Z,85.15
2022-09-28T22:08:29.207Z,85.21
2022-09-28T22:12:06.161Z,85.01
2022-09-28T22:16:02.351Z,84.95
2022-09-28T22:19:23.201Z,84.91
2022-09-28T22:23:20.742Z,85.02
2022-09-28T22:26:42.263Z,85.30
2022-09-28T22:30:19.337Z,85.40
2022-09-28T22:33:56.122Z,85.34
2022-09-28T22:37:33.591Z,85.20
2022-09-28T22:41:10.600Z,85.13
2022-09-28T22:44:45.429Z,85.38
2022-09-28T22:48:23.665Z,85.74
2022-09-28T22:51:59.508Z,85.80
2022-09-28T22:55:35.835Z,86.26
2022-09-28T22:59:12.678Z,86.36
2022-09-28T23:02:49.440Z,86.21
2022-09-28T23:06:45.140Z,85.95
2022-09-28T23:10:06.876Z,86.15
2022-09-28T23:13:43.838Z,86.35
2022-09-28T23:17:20.031Z,86.59
2022-09-28T23:21:18.933Z,86.70
2022-09-28T23:24:39.499Z,86.63
2022-09-28T23:28:16.975Z,86.27
2022-09-28T23:31:52.994Z,86.06
2022-09-28T23:35:29.857Z,85.77
2022-09-28T23:39:06.727Z,85.51
2022-09-28T23:42:43.435Z,85.63
2022-09-28T23:46:39.025Z,85.95
2022-09-28T23:50:18.261Z,86.30
2022-09-28T23:53:39.154Z,86.58
2022-09-28T23:57:15.827Z,86.20
